sensor_id;sensor_type;location;lat;lon;timestamp;pressure;altitude;pressure_sealevel;temperature;humidity
75420;BME280;63998;52.488;13.428;2024-03-17T00:00:15;101876.16;;;7.30;75.18
75420;BME280;63998;52.488;13.428;2024-03-17T00:02:43;101876.97;;;7.27;75.63
75420;BME280;63998;52.488;13.428;2024-03-17T00:05:08;101874.97;;;7.20;78.50
75420;BME280;63998;52.488;13.428;2024-03-17T00:07:33;101876.78;;;7.22;78.99
75420;BME280;63998;52.488;13.428;2024-03-17T00:09:59;101880.34;;;7.01;82.36
75420;BME280;63998;52.488;13.428;2024-03-17T00:12:24;101876.13;;;7.03;83.00
75420;BME280;63998;52.488;13.428;2024-03-17T00:14:49;101880.41;;;7.02;85.18
75420;BME280;63998;52.488;13.428;2024-03-17T00:17:15;101880.06;;;6.93;81.32
75420;BME280;63998;52.488;13.428;2024-03-17T00:19:40;101881.88;;;6.96;84.13
75420;BME280;63998;52.488;13.428;2024-03-17T00:22:06;101882.63;;;6.92;81.55
75420;BME280;63998;52.488;13.428;2024-03-17T00:24:34;101886.22;;;6.97;82.08
75420;BME280;63998;52.488;13.428;2024-03-17T00:27:00;101873.00;;;6.88;84.44
75420;BME280;63998;52.488;13.428;2024-03-17T00:29:26;101877.75;;;6.75;86.37
75420;BME280;63998;52.488;13.428;2024-03-17T00:31:53;101883.84;;;6.77;81.28
75420;BME280;63998;52.488;13.428;2024-03-17T00:34:18;101882.91;;;6.75;81.19
75420;BME280;63998;52.488;13.428;2024-03-17T00:36:45;101887.38;;;6.79;83.97
75420;BME280;63998;52.488;13.428;2024-03-17T00:39:10;101895.13;;;6.81;82.15
75420;BME280;63998;52.488;13.428;2024-03-17T00:41:36;101901.41;;;6.88;85.00
75420;BME280;63998;52.488;13.428;2024-03-17T00:44:01;101893.44;;;6.81;83.98
75420;BME280;63998;52.488;13.428;2024-03-17T00:46:28;101900.97;;;6.75;81.64
75420;BME280;63998;52.488;13.428;2024-03-17T00:48:53;101896.00;;;6.81;83.60
75420;BME280;63998;52.488;13.428;2024-03-17T00:51:18;101891.47;;;6.74;87.01
75420;BME280;63998;52.488;13.428;2024-03-17T00:53:44;101891.66;;;6.79;87.02
75420;BME280;63998;52.488;13.428;2024-03-17T00:56:09;101899.97;;;6.72;88.11
75420;BME280;63998;52.488;13.428;2024-03-17T00:58:34;101891.22;;;6.68;84.72
75420;BME280;63998;52.488;13.428;2024-03-17T01:01:00;101890.84;;;6.58;85.92
75420;BME280;63998;52.488;13.428;2024-03-17T01:03:25;101891.97;;;6.64;82.22
75420;BME280;63998;52.488;13.428;2024-03-17T01:05:52;101888.56;;;6.65;83.00
75420;BME280;63998;52.488;13.428;2024-03-17T01:08:19;101895.50;;;6.66;85.28
75420;BME280;63998;52.488;13.428;2024-03-17T01:10:46;101895.38;;;6.63;84.55
75420;BME280;63998;52.488;13.428;2024-03-17T01:13:16;101895.50;;;6.66;87.77
75420;BME280;63998;52.488;13.428;2024-03-17T01:15:41;101907.56;;;6.67;87.71
75420;BME280;63998;52.488;13.428;2024-03-17T01:18:07;101897.13;;;6.64;85.06
75420;BME280;63998;52.488;13.428;2024-03-17T01:20:35;101895.38;;;6.63;84.97
75420;BME280;63998;52.488;13.428;2024-03-17T01:23:01;101897.13;;;6.64;85.24
75420;BME280;63998;52.488;13.428;2024-03-17T01:25:26;101898.00;;;6.65;82.43
75420;BME280;63998;52.488;13.428;2024-03-17T01:27:52;101891.97;;;6.64;88.76
75420;BME280;63998;52.488;13.428;2024-03-17T01:30:18;101891.63;;;6.55;89.00
75420;BME280;63998;52.488;13.428;2024-03-17T01:32:45;101896.06;;;6.59;89.03
75420;BME280;63998;52.488;13.428;2024-03-17T01:35:10;101896.56;;;6.49;91.05
75420;BME280;63998;52.488;13.428;2024-03-17T01:37:37;101901.84;;;6.52;86.66
75420;BME280;63998;52.488;13.428;2024-03-17T01:40:02;101902.88;;;6.57;89.29
75420;BME280;63998;52.488;13.428;2024-03-17T01:42:29;101894.94;;;6.51;86.46
75420;BME280;63998;52.488;13.428;2024-03-17T01:44:55;101898.66;;;6.59;88.73
75420;BME280;63998;52.488;13.428;2024-03-17T01:47:20;101887.88;;;6.47;84.99
75420;BME280;63998;52.488;13.428;2024-03-17T01:49:47;101893.38;;;6.56;84.87
75420;BME280;63998;52.488;13.428;2024-03-17T01:52:14;101884.28;;;6.42;86.29
75420;BME280;63998;52.488;13.428;2024-03-17T01:54:41;101889.44;;;6.42;87.83
75420;BME280;63998;52.488;13.428;2024-03-17T01:57:07;101897.75;;;6.35;87.89
75420;BME280;63998;52.488;13.428;2024-03-17T01:59:33;101889.31;;;6.39;90.43
75420;BME280;63998;52.488;13.428;2024-03-17T02:01:58;101892.59;;;6.35;88.94
75420;BME280;63998;52.488;13.428;2024-03-17T02:04:24;101888.97;;;6.30;87.15
75420;BME280;63998;52.488;13.428;2024-03-17T02:06:49;101892.59;;;6.35;89.10
75420;BME280;63998;52.488;13.428;2024-03-17T02:09:15;101889.78;;;6.29;92.13
75420;BME280;63998;52.488;13.428;2024-03-17T02:11:40;101893.28;;;6.31;89.37
75420;BME280;63998;52.488;13.428;2024-03-17T02:14:06;101890.69;;;6.31;87.08
75420;BME280;63998;52.488;13.428;2024-03-17T02:16:34;101902.69;;;6.29;87.35
75420;BME280;63998;52.488;13.428;2024-03-17T02:18:59;101904.19;;;6.24;90.38
75420;BME280;63998;52.488;13.428;2024-03-17T02:21:27;101902.44;;;6.23;86.39
75420;BME280;63998;52.488;13.428;2024-03-17T02:23:56;101902.31;;;6.20;87.81
75420;BME280;63998;52.488;13.428;2024-03-17T02:26:22;101910.06;;;6.20;91.36
75420;BME280;63998;52.488;13.428;2024-03-17T02:28:48;101897.94;;;6.17;86.83
75420;BME280;63998;52.488;13.428;2024-03-17T02:31:15;101895.06;;;6.09;90.29
75420;BME280;63998;52.488;13.428;2024-03-17T02:33:41;101898.56;;;6.11;89.33
75420;BME280;63998;52.488;13.428;2024-03-17T02:36:06;101888.38;;;6.15;88.57
75420;BME280;63998;52.488;13.428;2024-03-17T02:38:33;101889.78;;;6.06;90.37
75420;BME280;63998;52.488;13.428;2024-03-17T02:41:17;101905.72;;;5.96;88.89
75420;BME280;63998;52.488;13.428;2024-03-17T02:43:44;101903.13;;;5.96;90.07
75420;BME280;63998;52.488;13.428;2024-03-17T02:46:16;101909.22;;;5.98;90.54
75420;BME280;63998;52.488;13.428;2024-03-17T02:48:42;101908.53;;;6.02;92.88
75420;BME280;63998;52.488;13.428;2024-03-17T02:51:12;101904.91;;;5.97;91.96
75420;BME280;63998;52.488;13.428;2024-03-17T02:53:40;101899.38;;;5.88;90.99
75420;BME280;63998;52.488;13.428;2024-03-17T02:56:05;101899.88;;;5.80;90.39
75420;BME280;63998;52.488;13.428;2024-03-17T02:58:33;101904.38;;;5.85;93.13
75420;BME280;63998;52.488;13.428;2024-03-17T03:00:58;101896.56;;;5.84;90.94
75420;BME280;63998;52.488;13.428;2024-03-17T03:03:24;101900.97;;;5.86;89.64
75420;BME280;63998;52.488;13.428;2024-03-17T03:05:50;101897.47;;;5.84;89.76
75420;BME280;63998;52.488;13.428;2024-03-17T03:08:15;101898.28;;;5.83;88.79
75420;BME280;63998;52.488;13.428;2024-03-17T03:10:46;101909.41;;;5.82;92.24
75420;BME280;63998;52.488;13.428;2024-03-17T03:13:11;101898.88;;;5.76;92.30
75420;BME280;63998;52.488;13.428;2024-03-17T03:15:37;101901.19;;;5.70;93.18
75420;BME280;63998;52.488;13.428;2024-03-17T03:18:02;101900.50;;;5.74;91.53
75420;BME280;63998;52.488;13.428;2024-03-17T03:20:28;101903.75;;;5.70;93.37
75420;BME280;63998;52.488;13.428;2024-03-17T03:22:53;101901.75;;;5.63;93.74
75420;BME280;63998;52.488;13.428;2024-03-17T03:25:19;101906.91;;;5.63;94.14
75420;BME280;63998;52.488;13.428;2024-03-17T03:27:44;101905.84;;;5.58;95.13
75420;BME280;63998;52.488;13.428;2024-03-17T03:30:10;101913.47;;;5.55;95.59
75420;BME280;63998;52.488;13.428;2024-03-17T03:32:35;101909.19;;;5.55;94.76
75420;BME280;63998;52.488;13.428;2024-03-17T03:35:04;101900.66;;;5.56;94.73
75420;BME280;63998;52.488;13.428;2024-03-17T03:37:30;101904.78;;;5.53;94.96
75420;BME280;63998;52.488;13.428;2024-03-17T03:39:56;101908.56;;;5.61;94.30
75420;BME280;63998;52.488;13.428;2024-03-17T03:42:21;101912.06;;;5.63;94.14
75420;BME280;63998;52.488;13.428;2024-03-17T03:44:48;101911.19;;;5.62;95.14
75420;BME280;63998;52.488;13.428;2024-03-17T03:47:14;101912.06;;;5.63;92.68
75420;BME280;63998;52.488;13.428;2024-03-17T03:49:39;101902.56;;;5.62;95.19
75420;BME280;63998;52.488;13.428;2024-03-17T03:52:04;101916.22;;;5.59;95.68
75420;BME280;63998;52.488;13.428;2024-03-17T03:54:30;101915.97;;;5.53;94.85
75420;BME280;63998;52.488;13.428;2024-03-17T03:56:55;101917.81;;;5.56;94.93
75420;BME280;63998;52.488;13.428;2024-03-17T03:59:21;101914.22;;;5.52;93.53
75420;BME280;63998;52.488;13.428;2024-03-17T04:01:47;101919.38;;;5.52;94.44
75420;BME280;63998;52.488;13.428;2024-03-17T04:04:13;101916.34;;;5.41;94.42
75420;BME280;63998;52.488;13.428;2024-03-17T04:06:38;101912.97;;;5.43;96.01
75420;BME280;63998;52.488;13.428;2024-03-17T04:09:03;101923.00;;;5.36;97.26
75420;BME280;63998;52.488;13.428;2024-03-17T04:11:32;101910.56;;;5.26;98.24
75420;BME280;63998;52.488;13.428;2024-03-17T04:13:58;101919.09;;;5.25;98.04
75420;BME280;63998;52.488;13.428;2024-03-17T04:16:26;101913.69;;;5.19;99.24
75420;BME280;63998;52.488;13.428;2024-03-17T04:18:51;101912.03;;;5.21;97.14
75420;BME280;63998;52.488;13.428;2024-03-17T04:21:16;101906.78;;;5.18;96.87
75420;BME280;63998;52.488;13.428;2024-03-17T04:23:42;101922.25;;;5.18;97.95
75420;BME280;63998;52.488;13.428;2024-03-17T04:26:07;101908.56;;;5.19;98.98
75420;BME280;63998;52.488;13.428;2024-03-17T04:28:35;101920.47;;;5.17;99.63
75420;BME280;63998;52.488;13.428;2024-03-17T04:31:07;101917.19;;;5.21;100.00
75420;BME280;63998;52.488;13.428;2024-03-17T04:33:34;101919.09;;;5.25;98.96
75420;BME280;63998;52.488;13.428;2024-03-17T04:36:00;101915.78;;;5.28;98.88
75420;BME280;63998;52.488;13.428;2024-03-17T04:38:25;101923.56;;;5.29;96.13
75420;BME280;63998;52.488;13.428;2024-03-17T04:40:52;101917.59;;;5.30;96.35
75420;BME280;63998;52.488;13.428;2024-03-17T04:43:24;101922.75;;;5.30;97.14
75420;BME280;63998;52.488;13.428;2024-03-17T04:45:59;101925.88;;;5.23;95.88
75420;BME280;63998;52.488;13.428;2024-03-17T04:48:24;101925.13;;;5.26;97.86
75420;BME280;63998;52.488;13.428;2024-03-17T04:50:49;101936.19;;;5.23;98.75
75420;BME280;63998;52.488;13.428;2024-03-17T04:53:15;101943.22;;;5.27;97.62
75420;BME280;63998;52.488;13.428;2024-03-17T04:55:40;101937.81;;;5.21;96.37
75420;BME280;63998;52.488;13.428;2024-03-17T04:58:05;101944.84;;;5.25;98.36
75420;BME280;63998;52.488;13.428;2024-03-17T05:00:31;101943.66;;;5.17;96.99
75420;BME280;63998;52.488;13.428;2024-03-17T05:02:56;101944.59;;;5.19;96.95
75420;BME280;63998;52.488;13.428;2024-03-17T05:05:21;101946.69;;;5.09;97.91
75420;BME280;63998;52.488;13.428;2024-03-17T05:07:48;101944.94;;;5.07;96.83
75420;BME280;63998;52.488;13.428;2024-03-17T05:10:15;101940.78;;;5.11;96.91
75420;BME280;63998;52.488;13.428;2024-03-17T05:12:40;101943.31;;;5.10;96.90
75420;BME280;63998;52.488;13.428;2024-03-17T05:15:06;101944.88;;;5.06;95.09
75420;BME280;63998;52.488;13.428;2024-03-17T05:17:32;101935.66;;;5.11;96.03
75420;BME280;63998;52.488;13.428;2024-03-17T05:19:57;101938.44;;;5.16;96.41
75420;BME280;63998;52.488;13.428;2024-03-17T05:22:23;101936.53;;;5.12;93.84
75420;BME280;63998;52.488;13.428;2024-03-17T05:24:48;101934.84;;;5.12;93.76
75420;BME280;63998;52.488;13.428;2024-03-17T05:27:13;101943.44;;;5.13;92.79
75420;BME280;63998;52.488;13.428;2024-03-17T05:29:39;101941.09;;;5.17;93.53
75420;BME280;63998;52.488;13.428;2024-03-17T05:32:05;101945.41;;;5.18;94.05
75420;BME280;63998;52.488;13.428;2024-03-17T05:34:30;101953.00;;;5.15;92.58
75420;BME280;63998;52.488;13.428;2024-03-17T05:36:55;101960.66;;;5.14;92.49
75420;BME280;63998;52.488;13.428;2024-03-17T05:39:21;101961.22;;;5.07;93.08
75420;BME280;63998;52.488;13.428;2024-03-17T05:41:47;101956.25;;;5.11;93.02
75420;BME280;63998;52.488;13.428;2024-03-17T05:44:14;101958.16;;;5.15;94.02
75420;BME280;63998;52.488;13.428;2024-03-17T05:46:40;101956.31;;;5.13;92.99
75420;BME280;63998;52.488;13.428;2024-03-17T05:49:05;101965.06;;;5.16;94.06
75420;BME280;63998;52.488;13.428;2024-03-17T05:51:32;101960.72;;;5.15;94.27
75420;BME280;63998;52.488;13.428;2024-03-17T05:53:57;101956.53;;;5.17;92.69
75420;BME280;63998;52.488;13.428;2024-03-17T05:56:24;101971.97;;;5.17;91.14
75420;BME280;63998;52.488;13.428;2024-03-17T05:58:49;101975.50;;;5.19;92.45
75420;BME280;63998;52.488;13.428;2024-03-17T06:01:14;101969.47;;;5.19;92.58
75420;BME280;63998;52.488;13.428;2024-03-17T06:03:40;101984.66;;;5.13;92.10
75420;BME280;63998;52.488;13.428;2024-03-17T06:06:07;101984.16;;;5.21;93.50
75420;BME280;63998;52.488;13.428;2024-03-17T06:08:36;101979.72;;;5.17;90.98
75420;BME280;63998;52.488;13.428;2024-03-17T06:11:02;101988.91;;;5.12;91.62
75420;BME280;63998;52.488;13.428;2024-03-17T06:13:28;101984.44;;;5.27;92.09
75420;BME280;63998;52.488;13.428;2024-03-17T06:15:54;101992.97;;;5.26;92.50
75420;BME280;63998;52.488;13.428;2024-03-17T06:18:20;101998.38;;;5.32;91.72
75420;BME280;63998;52.488;13.428;2024-03-17T06:20:46;101997.03;;;5.40;92.61
75420;BME280;63998;52.488;13.428;2024-03-17T06:23:12;101995.41;;;5.43;92.23
75420;BME280;63998;52.488;13.428;2024-03-17T06:28:08;101997.03;;;5.40;91.61
75420;BME280;63998;52.488;13.428;2024-03-17T06:30:34;102002.56;;;5.50;90.45
75420;BME280;63998;52.488;13.428;2024-03-17T06:33:01;102007.88;;;5.53;90.13
75420;BME280;63998;52.488;13.428;2024-03-17T06:35:26;102002.84;;;5.56;89.84
75420;BME280;63998;52.488;13.428;2024-03-17T06:37:52;102019.72;;;5.68;91.15
75420;BME280;63998;52.488;13.428;2024-03-17T06:40:18;102015.81;;;5.78;91.89
75420;BME280;63998;52.488;13.428;2024-03-17T06:42:44;102016.19;;;5.87;92.61
75420;BME280;63998;52.488;13.428;2024-03-17T06:45:09;102006.69;;;5.86;91.97
75420;BME280;63998;52.488;13.428;2024-03-17T06:47:38;102013.91;;;5.93;89.98
75420;BME280;63998;52.488;13.428;2024-03-17T06:50:05;102018.22;;;5.94;89.58
75420;BME280;63998;52.488;13.428;2024-03-17T06:52:31;102022.25;;;6.08;89.53
75420;BME280;63998;52.488;13.428;2024-03-17T06:54:57;102028.53;;;6.36;85.20
75420;BME280;63998;52.488;13.428;2024-03-17T06:57:26;102033.34;;;6.49;85.68
75420;BME280;63998;52.488;13.428;2024-03-17T06:59:51;102029.34;;;6.57;84.06
75420;BME280;63998;52.488;13.428;2024-03-17T07:02:17;102031.22;;;7.06;80.41
75420;BME280;63998;52.488;13.428;2024-03-17T07:04:47;102036.63;;;7.12;77.00
75420;BME280;63998;52.488;13.428;2024-03-17T07:07:13;102040.34;;;7.20;77.62
75420;BME280;63998;52.488;13.428;2024-03-17T07:09:39;102037.03;;;7.72;76.15
75420;BME280;63998;52.488;13.428;2024-03-17T07:12:09;102035.91;;;7.89;75.53
75420;BME280;63998;52.488;13.428;2024-03-17T07:14:35;102035.72;;;8.35;72.69
75420;BME280;63998;52.488;13.428;2024-03-17T07:17:01;102039.38;;;8.98;70.77
75420;BME280;63998;52.488;13.428;2024-03-17T07:19:26;102044.09;;;9.43;66.99
75420;BME280;63998;52.488;13.428;2024-03-17T07:21:51;102045.72;;;10.04;65.06
75420;BME280;63998;52.488;13.428;2024-03-17T07:24:17;102043.44;;;10.51;63.67
75420;BME280;63998;52.488;13.428;2024-03-17T07:26:42;102060.13;;;10.24;62.05
75420;BME280;63998;52.488;13.428;2024-03-17T07:29:07;102053.97;;;9.88;61.33
75420;BME280;63998;52.488;13.428;2024-03-17T07:31:33;102046.53;;;9.68;59.74
75420;BME280;63998;52.488;13.428;2024-03-17T07:33:59;102046.19;;;9.89;58.16
75420;BME280;63998;52.488;13.428;2024-03-17T07:36:24;102051.06;;;10.10;59.19
75420;BME280;63998;52.488;13.428;2024-03-17T07:38:49;102048.44;;;10.43;56.31
75420;BME280;63998;52.488;13.428;2024-03-17T07:41:16;102057.94;;;10.08;59.11
75420;BME280;63998;52.488;13.428;2024-03-17T07:43:41;102062.09;;;9.68;57.47
75420;BME280;63998;52.488;13.428;2024-03-17T07:46:10;102064.94;;;9.46;59.56
75420;BME280;63998;52.488;13.428;2024-03-17T07:48:38;102070.13;;;9.46;59.74
75420;BME280;63998;52.488;13.428;2024-03-17T07:51:08;102073.47;;;9.42;62.83
75420;BME280;63998;52.488;13.428;2024-03-17T07:53:36;102076.47;;;9.26;61.81
75420;BME280;63998;52.488;13.428;2024-03-17T07:56:11;102071.63;;;9.69;60.90
75420;BME280;63998;52.488;13.428;2024-03-17T07:58:41;102062.50;;;11.31;55.60
75420;BME280;63998;52.488;13.428;2024-03-17T08:01:09;102068.19;;;11.55;52.09
75420;BME280;63998;52.488;13.428;2024-03-17T08:03:36;102062.84;;;11.93;50.93
75420;BME280;63998;52.488;13.428;2024-03-17T08:06:04;102059.25;;;11.87;48.76
75420;BME280;63998;52.488;13.428;2024-03-17T08:08:30;102061.25;;;12.02;51.59
75420;BME280;63998;52.488;13.428;2024-03-17T08:10:56;102057.28;;;12.81;48.67
75420;BME280;63998;52.488;13.428;2024-03-17T08:13:21;102067.13;;;13.02;47.16
75420;BME280;63998;52.488;13.428;2024-03-17T08:15:55;102053.19;;;13.00;46.50
75420;BME280;63998;52.488;13.428;2024-03-17T08:18:21;102053.09;;;12.32;46.32
75420;BME280;63998;52.488;13.428;2024-03-17T08:20:46;102050.59;;;11.88;50.09
75420;BME280;63998;52.488;13.428;2024-03-17T08:23:12;102057.69;;;11.52;51.53
75420;BME280;63998;52.488;13.428;2024-03-17T08:25:38;102055.44;;;11.24;51.33
75420;BME280;63998;52.488;13.428;2024-03-17T08:28:04;102051.84;;;11.19;52.81
75420;BME280;63998;52.488;13.428;2024-03-17T08:30:30;102052.03;;;10.86;53.91
75420;BME280;63998;52.488;13.428;2024-03-17T08:32:56;102050.91;;;10.76;53.07
75420;BME280;63998;52.488;13.428;2024-03-17T08:35:21;102049.97;;;11.11;53.85
75420;BME280;63998;52.488;13.428;2024-03-17T08:37:46;102053.94;;;10.94;57.50
75420;BME280;63998;52.488;13.428;2024-03-17T08:40:12;102054.31;;;10.72;54.64
75420;BME280;63998;52.488;13.428;2024-03-17T08:42:39;102059.31;;;10.63;57.01
75420;BME280;63998;52.488;13.428;2024-03-17T08:45:04;102054.47;;;10.42;57.19
75420;BME280;63998;52.488;13.428;2024-03-17T08:47:30;102054.94;;;10.24;55.11
75420;BME280;63998;52.488;13.428;2024-03-17T08:49:55;102061.13;;;10.31;60.25
75420;BME280;63998;52.488;13.428;2024-03-17T08:52:20;102064.06;;;10.10;56.10
75420;BME280;63998;52.488;13.428;2024-03-17T08:54:49;102068.00;;;9.96;54.61
75420;BME280;63998;52.488;13.428;2024-03-17T08:57:17;102065.63;;;9.39;53.18
75420;BME280;63998;52.488;13.428;2024-03-17T08:59:42;102073.22;;;9.33;56.28
75420;BME280;63998;52.488;13.428;2024-03-17T09:02:12;102073.13;;;9.30;55.80
75420;BME280;63998;52.488;13.428;2024-03-17T09:04:40;102072.31;;;9.02;54.31
75420;BME280;63998;52.488;13.428;2024-03-17T09:07:05;102075.94;;;9.08;55.08
75420;BME280;63998;52.488;13.428;2024-03-17T09:09:31;102072.97;;;8.67;56.78
75420;BME280;63998;52.488;13.428;2024-03-17T09:11:56;102068.25;;;8.82;58.11
75420;BME280;63998;52.488;13.428;2024-03-17T09:14:21;102072.19;;;8.43;55.36
75420;BME280;63998;52.488;13.428;2024-03-17T09:16:47;102068.91;;;8.75;61.33
75420;BME280;63998;52.488;13.428;2024-03-17T09:19:12;102073.91;;;8.69;56.89
75420;BME280;63998;52.488;13.428;2024-03-17T09:21:38;102078.84;;;8.61;55.60
75420;BME280;63998;52.488;13.428;2024-03-17T09:24:05;102075.41;;;8.89;59.26
75420;BME280;63998;52.488;13.428;2024-03-17T09:26:32;102071.41;;;9.00;56.31
75420;BME280;63998;52.488;13.428;2024-03-17T09:28:59;102065.91;;;9.20;57.72
75420;BME280;63998;52.488;13.428;2024-03-17T09:31:24;102071.72;;;9.41;60.69
75420;BME280;63998;52.488;13.428;2024-03-17T09:33:50;102072.22;;;9.59;63.13
75420;BME280;63998;52.488;13.428;2024-03-17T09:36:15;102069.22;;;9.76;61.38
75420;BME280;63998;52.488;13.428;2024-03-17T09:38:41;102071.13;;;9.83;58.85
75420;BME280;63998;52.488;13.428;2024-03-17T09:41:07;102069.22;;;9.76;53.23
75420;BME280;63998;52.488;13.428;2024-03-17T09:43:34;102083.25;;;9.84;53.97
75420;BME280;63998;52.488;13.428;2024-03-17T09:46:02;102068.94;;;9.66;52.92
75420;BME280;63998;52.488;13.428;2024-03-17T09:48:28;102074.38;;;9.74;55.50
75420;BME280;63998;52.488;13.428;2024-03-17T09:53:33;102081.41;;;9.80;59.04
75420;BME280;63998;52.488;13.428;2024-03-17T09:56:03;102073.72;;;9.83;58.74
75420;BME280;63998;52.488;13.428;2024-03-17T09:58:31;102069.28;;;9.79;56.09
75420;BME280;63998;52.488;13.428;2024-03-17T10:00:56;102073.75;;;9.53;52.15
75420;BME280;63998;52.488;13.428;2024-03-17T10:06:12;102067.69;;;9.84;59.55
75420;BME280;63998;52.488;13.428;2024-03-17T10:08:44;102061.66;;;9.85;57.43
75420;BME280;63998;52.488;13.428;2024-03-17T10:11:11;102062.31;;;9.78;54.12
75420;BME280;63998;52.488;13.428;2024-03-17T10:13:37;102056.47;;;9.85;55.11
75420;BME280;63998;52.488;13.428;2024-03-17T10:16:03;102062.00;;;9.65;53.42
75420;BME280;63998;52.488;13.428;2024-03-17T10:18:28;102066.63;;;9.77;56.05
75420;BME280;63998;52.488;13.428;2024-03-17T10:20:53;102063.19;;;9.77;54.89
75420;BME280;63998;52.488;13.428;2024-03-17T10:23:23;102065.44;;;9.64;55.61
75420;BME280;63998;52.488;13.428;2024-03-17T10:25:48;102065.44;;;9.64;56.63
75420;BME280;63998;52.488;13.428;2024-03-17T10:28:15;102064.31;;;9.55;55.17
75420;BME280;63998;52.488;13.428;2024-03-17T10:30:41;102064.59;;;9.65;53.91
75420;BME280;63998;52.488;13.428;2024-03-17T10:33:19;102057.75;;;9.67;55.87
75420;BME280;63998;52.488;13.428;2024-03-17T10:35:47;102062.88;;;9.66;53.37
75420;BME280;63998;52.488;13.428;2024-03-17T10:38:14;102066.50;;;9.71;56.31
75420;BME280;63998;52.488;13.428;2024-03-17T10:40:39;102072.69;;;9.76;58.47
75420;BME280;63998;52.488;13.428;2024-03-17T10:43:05;102063.28;;;9.81;58.96
75420;BME280;63998;52.488;13.428;2024-03-17T10:45:32;102066.13;;;9.89;57.59
75420;BME280;63998;52.488;13.428;2024-03-17T10:48:08;102070.59;;;9.96;57.12
75420;BME280;63998;52.488;13.428;2024-03-17T10:50:36;102066.13;;;9.89;54.18
75420;BME280;63998;52.488;13.428;2024-03-17T10:53:04;102066.03;;;9.86;53.15
75420;BME280;63998;52.488;13.428;2024-03-17T10:55:46;102072.19;;;9.91;57.28
75420;BME280;63998;52.488;13.428;2024-03-17T10:58:23;102069.13;;;9.72;51.24
75420;BME280;63998;52.488;13.428;2024-03-17T11:00:56;102070.72;;;9.67;49.82
75420;BME280;63998;52.488;13.428;2024-03-17T11:03:21;102065.63;;;9.70;51.39
75420;BME280;63998;52.488;13.428;2024-03-17T11:05:49;102065.69;;;9.73;53.36
75420;BME280;63998;52.488;13.428;2024-03-17T11:08:17;102069.22;;;9.76;61.48
75420;BME280;63998;52.488;13.428;2024-03-17T11:10:51;102073.72;;;9.83;60.43
75420;BME280;63998;52.488;13.428;2024-03-17T11:13:29;102068.81;;;9.93;61.18
75420;BME280;63998;52.488;13.428;2024-03-17T11:15:58;102074.50;;;9.80;51.44
75420;BME280;63998;52.488;13.428;2024-03-17T11:18:31;102070.25;;;9.82;49.70
75420;BME280;63998;52.488;13.428;2024-03-17T11:23:36;102063.03;;;10.05;53.92
75420;BME280;63998;52.488;13.428;2024-03-17T11:26:05;102062.38;;;10.12;60.33
75420;BME280;63998;52.488;13.428;2024-03-17T11:31:37;102050.28;;;10.13;49.13
75420;BME280;63998;52.488;13.428;2024-03-17T11:34:28;102063.34;;;10.17;48.70
75420;BME280;63998;52.488;13.428;2024-03-17T11:36:52;102060.13;;;10.24;45.44
75420;BME280;63998;52.488;13.428;2024-03-17T11:39:19;102057.03;;;10.40;46.85
75420;BME280;63998;52.488;13.428;2024-03-17T11:41:53;102050.63;;;10.62;53.11
75420;BME280;63998;52.488;13.428;2024-03-17T11:47:05;102045.00;;;11.22;47.72
75420;BME280;63998;52.488;13.428;2024-03-17T11:49:36;102051.72;;;11.56;50.63
75420;BME280;63998;52.488;13.428;2024-03-17T11:54:43;102039.25;;;11.83;45.87
75420;BME280;63998;52.488;13.428;2024-03-17T11:57:21;102045.81;;;12.13;47.87
75420;BME280;63998;52.488;13.428;2024-03-17T11:59:50;102048.88;;;12.40;44.12
75420;BME280;63998;52.488;13.428;2024-03-17T12:02:17;102050.09;;;12.65;46.83
75420;BME280;63998;52.488;13.428;2024-03-17T12:04:43;102046.03;;;12.84;44.55
75420;BME280;63998;52.488;13.428;2024-03-17T12:07:13;102045.44;;;13.05;44.52
75420;BME280;63998;52.488;13.428;2024-03-17T12:09:41;102033.50;;;13.23;45.59
75420;BME280;63998;52.488;13.428;2024-03-17T12:12:27;102033.66;;;13.36;40.89
75420;BME280;63998;52.488;13.428;2024-03-17T12:15:05;102030.56;;;13.72;44.75
75420;BME280;63998;52.488;13.428;2024-03-17T12:17:41;102030.94;;;14.14;42.34
75420;BME280;63998;52.488;13.428;2024-03-17T12:20:16;102031.97;;;14.36;44.44
75420;BME280;63998;52.488;13.428;2024-03-17T12:22:42;102031.31;;;14.58;46.14
75420;BME280;63998;52.488;13.428;2024-03-17T12:25:17;102020.09;;;14.87;43.76
75420;BME280;63998;52.488;13.428;2024-03-17T12:27:44;102016.78;;;15.24;43.76
75420;BME280;63998;52.488;13.428;2024-03-17T12:30:10;102022.13;;;15.59;46.02
75420;BME280;63998;52.488;13.428;2024-03-17T12:32:36;102015.19;;;15.95;45.34
75420;BME280;63998;52.488;13.428;2024-03-17T12:35:01;102012.56;;;16.24;45.70
75420;BME280;63998;52.488;13.428;2024-03-17T12:37:28;102009.88;;;16.57;37.25
75420;BME280;63998;52.488;13.428;2024-03-17T12:39:59;101994.13;;;16.78;36.69
75420;BME280;63998;52.488;13.428;2024-03-17T12:42:27;101991.50;;;16.78;39.94
75420;BME280;63998;52.488;13.428;2024-03-17T12:44:57;101995.00;;;16.73;40.80
75420;BME280;63998;52.488;13.428;2024-03-17T12:47:23;101987.19;;;16.41;36.08
75420;BME280;63998;52.488;13.428;2024-03-17T12:55:05;101996.69;;;16.81;37.29
75420;BME280;63998;52.488;13.428;2024-03-17T12:58:06;102009.88;;;16.45;42.18
75420;BME280;63998;52.488;13.428;2024-03-17T13:01:05;101998.56;;;15.84;35.86
75420;BME280;63998;52.488;13.428;2024-03-17T13:03:36;102000.16;;;15.12;35.31
75420;BME280;63998;52.488;13.428;2024-03-17T13:06:03;102006.03;;;14.63;37.13
75420;BME280;63998;52.488;13.428;2024-03-17T13:08:31;102004.06;;;14.35;36.22
75420;BME280;63998;52.488;13.428;2024-03-17T13:10:57;102005.78;;;14.27;38.50